createdAt,value
2023-05-16T00:01:25.032Z,16.01
2023-05-16T00:03:51.894Z,15.94
2023-05-16T00:06:18.593Z,15.94
2023-05-16T00:08:45.249Z,15.90
2023-05-16T00:11:11.792Z,15.96
2023-05-16T00:13:38.950Z,16.02
2023-05-16T00:16:06.509Z,16.11
2023-05-16T00:18:33.555Z,16.11
2023-05-16T00:21:02.655Z,16.08
2023-05-16T00:23:34.479Z,16.10
2023-05-16T00:26:01.061Z,16.07
2023-05-16T00:28:32.601Z,16.01
2023-05-16T00:31:01.442Z,15.98
2023-05-16T00:33:30.594Z,15.99
2023-05-16T00:35:58.168Z,15.89
2023-05-16T00:38:24.767Z,15.84
2023-05-16T00:40:56.873Z,15.75
2023-05-16T00:43:23.663Z,15.78
2023-05-16T00:45:50.990Z,15.79
2023-05-16T00:48:17.839Z,15.76
2023-05-16T00:50:47.431Z,15.78
2023-05-16T00:53:17.164Z,15.70
2023-05-16T00:55:48.733Z,15.63
2023-05-16T00:58:17.705Z,15.63
2023-05-16T01:00:48.810Z,15.71
2023-05-16T01:03:16.122Z,15.74
2023-05-16T01:05:45.182Z,15.79
2023-05-16T01:08:12.641Z,15.82
2023-05-16T01:10:59.513Z,15.82
2023-05-16T01:13:44.564Z,15.69
2023-05-16T01:16:25.082Z,15.65
2023-05-16T01:19:06.005Z,15.64
2023-05-16T01:21:53.061Z,15.66
2023-05-16T01:24:24.572Z,15.67
2023-05-16T01:26:53.823Z,15.66
2023-05-16T01:29:20.686Z,15.69
2023-05-16T01:31:48.049Z,15.67
2023-05-16T01:34:14.814Z,15.69
2023-05-16T01:36:44.740Z,15.70
2023-05-16T01:39:14.190Z,15.66
2023-05-16T01:42:03.864Z,15.63
2023-05-16T01:44:49.136Z,15.65
2023-05-16T01:47:16.749Z,15.72
2023-05-16T01:49:47.046Z,15.68
2023-05-16T01:52:15.331Z,15.70
2023-05-16T01:54:43.627Z,15.65
2023-05-16T01:57:10.301Z,15.65
2023-05-16T01:59:37.237Z,15.60
2023-05-16T02:02:06.610Z,15.61
2023-05-16T02:04:33.230Z,15.59
2023-05-16T02:07:00.674Z,15.62
2023-05-16T02:09:27.645Z,15.57
2023-05-16T02:11:56.318Z,15.59
2023-05-16T02:14:27.051Z,15.59
2023-05-16T02:16:53.804Z,15.60
2023-05-16T02:19:20.834Z,15.56
2023-05-16T02:21:47.629Z,15.50
2023-05-16T02:24:14.292Z,15.42
2023-05-16T02:26:43.345Z,15.38
2023-05-16T02:29:10.518Z,15.38
2023-05-16T02:31:37.342Z,15.39
2023-05-16T02:34:04.119Z,15.34
2023-05-16T02:36:30.989Z,15.29
2023-05-16T02:38:59.988Z,15.10
2023-05-16T02:41:28.445Z,15.00
2023-05-16T02:43:55.038Z,14.93
2023-05-16T02:46:24.161Z,14.93
2023-05-16T02:48:53.602Z,14.95
2023-05-16T02:51:20.870Z,15.01
2023-05-16T02:53:47.557Z,15.02
2023-05-16T02:56:16.494Z,15.03
2023-05-16T02:58:45.855Z,15.07
2023-05-16T03:01:12.549Z,15.06
2023-05-16T03:03:39.407Z,15.10
2023-05-16T03:06:13.170Z,15.14
2023-05-16T03:08:42.183Z,15.16
2023-05-16T03:11:08.819Z,15.18
2023-05-16T03:13:37.718Z,15.19
2023-05-16T03:16:07.260Z,15.19
2023-05-16T03:18:38.815Z,15.22
2023-05-16T03:21:05.527Z,15.21
2023-05-16T03:23:32.250Z,15.15
2023-05-16T03:26:05.833Z,15.03
2023-05-16T03:28:32.433Z,15.07
2023-05-16T03:30:59.193Z,15.16
2023-05-16T03:33:28.347Z,15.22
2023-05-16T03:35:55.008Z,15.22
2023-05-16T03:38:21.801Z,15.16
2023-05-16T03:40:51.384Z,15.16
2023-05-16T03:43:18.000Z,15.15
2023-05-16T03:45:47.048Z,15.16
2023-05-16T03:48:13.856Z,15.21
2023-05-16T03:50:43.037Z,15.21
2023-05-16T03:53:12.229Z,15.21
2023-05-16T03:55:38.956Z,15.27
2023-05-16T03:58:06.012Z,15.32
2023-05-16T04:00:36.741Z,15.34
2023-05-16T04:03:05.978Z,15.36
2023-05-16T04:05:32.825Z,15.40
2023-05-16T04:07:59.470Z,15.45
2023-05-16T04:10:26.129Z,15.53
2023-05-16T04:12:55.127Z,15.61
2023-05-16T04:15:32.371Z,15.57
2023-05-16T04:17:59.191Z,15.54
2023-05-16T04:20:28.427Z,15.53
2023-05-16T04:22:55.249Z,15.47
2023-05-16T04:25:42.248Z,15.48
2023-05-16T04:28:13.851Z,15.53
2023-05-16T04:31:06.542Z,15.57
2023-05-16T04:34:19.619Z,15.54
2023-05-16T04:38:17.667Z,15.59
2023-05-16T04:41:30.574Z,15.50
2023-05-16T04:44:15.036Z,15.28
2023-05-16T04:46:44.123Z,15.26
2023-05-16T04:49:33.615Z,15.28
2023-05-16T05:00:38.717Z,15.57
2023-05-16T05:04:08.560Z,15.62
2023-05-16T05:14:00.971Z,15.77
2023-05-16T05:16:29.906Z,15.78
2023-05-16T05:18:59.736Z,15.83
2023-05-16T05:21:28.757Z,15.80
2023-05-16T05:23:58.177Z,15.79
2023-05-16T05:26:26.282Z,15.82
2023-05-16T05:29:04.713Z,15.84
2023-05-16T05:31:35.353Z,15.84
2023-05-16T05:34:02.870Z,15.82
2023-05-16T05:36:29.593Z,15.80
2023-05-16T05:38:56.364Z,15.80
2023-05-16T05:41:29.999Z,15.85
2023-05-16T05:43:59.345Z,15.90
2023-05-16T05:46:28.290Z,15.96
2023-05-16T05:48:55.323Z,15.99
2023-05-16T05:51:22.043Z,15.96
2023-05-16T05:53:48.918Z,15.98
2023-05-16T05:56:15.513Z,16.00
2023-05-16T05:58:42.493Z,15.97
2023-05-16T06:01:09.382Z,16.00
2023-05-16T06:03:36.136Z,16.06
2023-05-16T06:06:04.116Z,16.00
2023-05-16T06:08:30.827Z,15.98
2023-05-16T06:11:00.234Z,15.86
2023-05-16T06:13:33.107Z,15.87
2023-05-16T06:16:02.679Z,15.90
2023-05-16T06:18:29.937Z,15.92
2023-05-16T06:21:01.237Z,15.98
2023-05-16T06:23:29.979Z,15.94
2023-05-16T06:25:59.413Z,15.97
2023-05-16T06:28:26.025Z,15.92
2023-05-16T06:30:57.614Z,15.92
2023-05-16T06:33:26.687Z,15.94
2023-05-16T06:35:56.595Z,16.05
2023-05-16T06:38:23.231Z,16.15
2023-05-16T06:40:49.913Z,16.18
2023-05-16T06:43:18.901Z,16.14
2023-05-16T06:45:47.191Z,16.04
2023-05-16T06:48:18.705Z,15.97
2023-05-16T06:50:52.168Z,15.94
2023-05-16T06:53:18.950Z,16.04
2023-05-16T06:55:47.885Z,16.12
2023-05-16T06:58:22.669Z,16.16
2023-05-16T07:00:58.515Z,16.26
2023-05-16T07:03:27.436Z,16.30
2023-05-16T07:05:54.554Z,16.34
2023-05-16T07:08:21.126Z,16.36
2023-05-16T07:10:47.839Z,16.40
2023-05-16T07:13:14.513Z,16.36
2023-05-16T07:15:41.123Z,16.22
2023-05-16T07:18:07.961Z,16.31
2023-05-16T07:20:34.736Z,16.40
2023-05-16T07:23:02.103Z,16.46
2023-05-16T07:25:29.189Z,16.43
2023-05-16T07:27:58.904Z,16.54
2023-05-16T07:30:25.791Z,16.48
2023-05-16T07:32:54.805Z,16.54
2023-05-16T07:35:21.478Z,16.57
2023-05-16T07:37:50.670Z,16.60
2023-05-16T07:40:18.687Z,16.54
2023-05-16T07:42:47.745Z,16.56
2023-05-16T07:45:14.837Z,16.53
2023-05-16T07:47:42.069Z,16.40
2023-05-16T07:50:11.242Z,16.26
2023-05-16T07:52:37.918Z,16.25
2023-05-16T07:55:07.278Z,16.24
2023-05-16T07:57:33.971Z,16.29
2023-05-16T08:00:01.046Z,16.22
2023-05-16T08:02:33.463Z,16.18
2023-05-16T08:05:03.359Z,16.14
2023-05-16T08:07:30.568Z,15.96
2023-05-16T08:09:57.196Z,16.01
2023-05-16T08:12:24.337Z,15.99
2023-05-16T08:14:56.017Z,15.95
2023-05-16T08:17:25.082Z,15.99
2023-05-16T08:19:51.687Z,16.06
2023-05-16T08:22:18.494Z,15.99
2023-05-16T08:24:47.518Z,15.88
2023-05-16T08:27:16.697Z,15.77
2023-05-16T08:29:46.309Z,15.62
2023-05-16T08:32:13.172Z,15.64
2023-05-16T08:34:39.861Z,15.67
2023-05-16T08:37:06.610Z,15.54
2023-05-16T08:39:35.772Z,15.59
2023-05-16T08:42:02.568Z,15.48
2023-05-16T08:44:29.552Z,15.42
2023-05-16T08:46:58.884Z,15.48
2023-05-16T08:49:28.241Z,15.57
2023-05-16T08:51:59.721Z,15.60
2023-05-16T08:54:30.024Z,15.66
2023-05-16T08:57:03.048Z,15.63
2023-05-16T08:59:29.725Z,15.52
2023-05-16T09:01:57.053Z,15.51
2023-05-16T09:04:28.037Z,15.63
2023-05-16T09:06:57.344Z,15.72
2023-05-16T09:09:29.426Z,15.90
2023-05-16T09:11:58.645Z,15.98
2023-05-16T09:14:25.844Z,16.02
2023-05-16T09:17:12.653Z,15.82
2023-05-16T09:19:40.373Z,15.69
2023-05-16T09:22:11.633Z,15.71
2023-05-16T09:24:41.593Z,15.69
2023-05-16T09:27:12.144Z,15.71
2023-05-16T09:29:44.678Z,15.63
2023-05-16T09:32:12.943Z,15.50
2023-05-16T09:34:49.209Z,15.59
2023-05-16T09:37:18.123Z,15.73
2023-05-16T09:39:48.411Z,15.85
2023-05-16T09:42:24.250Z,15.98
2023-05-16T09:44:52.395Z,15.97
2023-05-16T09:47:22.314Z,16.08
2023-05-16T09:49:54.454Z,16.00
2023-05-16T09:52:25.685Z,16.01
2023-05-16T09:55:05.327Z,16.04
2023-05-16T09:57:44.299Z,16.15
2023-05-16T10:00:11.988Z,16.05
2023-05-16T10:02:40.557Z,15.98
2023-05-16T10:05:09.854Z,15.97
2023-05-16T10:07:46.866Z,15.99
2023-05-16T10:10:15.994Z,16.06
2023-05-16T10:12:42.651Z,16.12
2023-05-16T10:15:09.686Z,16.17
2023-05-16T10:17:37.115Z,16.26
2023-05-16T10:20:07.280Z,16.29
2023-05-16T10:22:37.322Z,16.30
2023-05-16T10:25:33.524Z,16.32
2023-05-16T10:28:00.320Z,16.24
2023-05-16T10:30:30.311Z,16.13
2023-05-16T10:33:01.182Z,16.07
2023-05-16T10:35:28.230Z,16.00
2023-05-16T10:37:55.285Z,16.01
2023-05-16T10:40:21.929Z,16.01
2023-05-16T10:42:59.530Z,16.11
2023-05-16T10:45:26.436Z,16.17
2023-05-16T10:47:56.320Z,16.16
2023-05-16T10:50:36.740Z,16.21
2023-05-16T10:53:18.811Z,16.22
2023-05-16T10:56:01.354Z,16.22
2023-05-16T10:58:31.251Z,16.16
2023-05-16T11:01:17.036Z,16.17
2023-05-16T11:04:01.958Z,16.12
2023-05-16T11:06:35.396Z,16.13
2023-05-16T11:09:10.169Z,16.25
2023-05-16T11:11:53.303Z,16.42
2023-05-16T11:14:29.603Z,16.54
2023-05-16T11:17:10.396Z,16.67
2023-05-16T11:19:47.039Z,16.71
2023-05-16T11:22:19.884Z,16.77
2023-05-16T11:24:51.296Z,16.75
2023-05-16T11:27:24.148Z,16.86
2023-05-16T11:30:02.808Z,16.99
2023-05-16T11:32:35.304Z,17.17
2023-05-16T11:35:11.563Z,17.31
2023-05-16T11:37:42.209Z,17.39
2023-05-16T11:40:12.314Z,17.40
2023-05-16T11:42:43.027Z,17.39
2023-05-16T11:45:09.725Z,17.44
2023-05-16T11:47:37.604Z,17.50
2023-05-16T11:50:10.349Z,17.49
2023-05-16T11:52:40.019Z,17.50
2023-05-16T11:55:08.114Z,17.42
2023-05-16T11:57:34.804Z,17.49
2023-05-16T12:00:09.263Z,17.54
2023-05-16T12:02:38.620Z,17.61
2023-05-16T12:05:10.391Z,17.69
2023-05-16T12:07:37.551Z,17.76
2023-05-16T12:10:10.103Z,17.89
2023-05-16T12:12:37.081Z,17.88
2023-05-16T12:15:07.918Z,17.96
2023-05-16T12:17:37.961Z,17.97
2023-05-16T12:20:11.668Z,18.15
2023-05-16T12:22:41.965Z,18.21
2023-05-16T12:25:28.009Z,18.23
2023-05-16T12:27:55.423Z,18.26
2023-05-16T12:30:22.988Z,18.35
2023-05-16T12:33:09.959Z,18.35
2023-05-16T12:35:38.361Z,18.35
2023-05-16T12:38:08.973Z,18.32
2023-05-16T12:40:39.917Z,18.27
2023-05-16T12:43:27.917Z,18.25
2023-05-16T12:45:58.652Z,18.15
2023-05-16T12:48:37.017Z,18.19
2023-05-16T12:51:16.560Z,18.28
2023-05-16T12:54:08.814Z,18.30
2023-05-16T12:56:42.038Z,18.30
2023-05-16T12:59:12.490Z,18.28
2023-05-16T13:01:45.897Z,18.31
2023-05-16T13:04:19.164Z,18.36
2023-05-16T13:06:58.408Z,18.35
2023-05-16T13:09:31.411Z,18.31
2023-05-16T13:12:03.001Z,18.42
2023-05-16T13:14:32.745Z,18.48
2023-05-16T13:17:02.380Z,18.46
2023-05-16T13:19:31.855Z,18.44
2023-05-16T13:21:58.770Z,18.45
2023-05-16T13:24:25.448Z,18.44
2023-05-16T13:26:56.785Z,18.34
2023-05-16T13:29:23.497Z,18.29
2023-05-16T13:31:50.821Z,18.24
2023-05-16T13:34:17.564Z,18.16
2023-05-16T13:36:54.568Z,18.13
2023-05-16T13:39:22.400Z,18.09
2023-05-16T13:41:49.473Z,18.14
2023-05-16T13:44:16.759Z,18.20
2023-05-16T13:46:43.572Z,18.28
2023-05-16T13:49:15.549Z,18.43
2023-05-16T13:51:44.626Z,18.60
2023-05-16T13:54:13.766Z,18.67
2023-05-16T13:56:40.501Z,18.73
2023-05-16T13:59:07.885Z,18.86
2023-05-16T14:01:41.182Z,19.07
2023-05-16T14:04:12.740Z,19.28
2023-05-16T14:06:39.419Z,19.27
2023-05-16T14:09:06.412Z,19.35
2023-05-16T14:11:33.075Z,19.51
2023-05-16T14:14:02.148Z,19.67
2023-05-16T14:16:31.332Z,19.73
2023-05-16T14:18:58.432Z,19.87
2023-05-16T14:21:25.085Z,19.91
2023-05-16T14:23:54.212Z,19.87
2023-05-16T14:26:25.556Z,19.85
2023-05-16T14:28:59.670Z,19.80
2023-05-16T14:31:29.935Z,19.79
2023-05-16T14:33:57.094Z,19.64
2023-05-16T14:36:23.934Z,19.51
2023-05-16T14:38:50.586Z,19.43
2023-05-16T14:41:17.315Z,19.37
2023-05-16T14:43:44.802Z,19.32
2023-05-16T14:46:17.274Z,19.30
2023-05-16T14:48:43.984Z,19.20
2023-05-16T14:51:13.694Z,19.19
2023-05-16T14:53:40.942Z,19.12
2023-05-16T14:56:07.658Z,19.09
2023-05-16T14:58:37.001Z,19.01
2023-05-16T15:01:04.282Z,18.95
2023-05-16T15:03:43.283Z,18.83
2023-05-16T15:06:20.161Z,18.80
2023-05-16T15:08:51.906Z,18.82
2023-05-16T15:11:18.656Z,18.84
2023-05-16T15:13:47.732Z,18.86
2023-05-16T15:16:14.459Z,18.70
2023-05-16T15:18:41.371Z,18.60
2023-05-16T15:21:09.100Z,18.56
2023-05-16T15:23:36.617Z,18.60
2023-05-16T15:26:03.724Z,18.56
2023-05-16T15:28:30.380Z,18.52
2023-05-16T15:30:59.675Z,18.48
2023-05-16T15:33:26.366Z,18.52
2023-05-16T15:35:53.076Z,18.45
2023-05-16T15:38:19.965Z,18.41
2023-05-16T15:41:09.701Z,18.29
2023-05-16T15:43:44.119Z,18.26
2023-05-16T15:46:13.445Z,18.19
2023-05-16T15:48:44.738Z,18.20
2023-05-16T15:51:15.743Z,18.11
2023-05-16T15:53:45.178Z,18.07
2023-05-16T15:56:11.923Z,18.08
2023-05-16T15:58:41.733Z,18.08
2023-05-16T16:01:08.498Z,17.92
2023-05-16T16:03:38.306Z,17.84
2023-05-16T16:06:05.210Z,17.83
2023-05-16T16:08:34.371Z,17.74
2023-05-16T16:11:01.327Z,17.55
2023-05-16T16:13:31.072Z,17.52
2023-05-16T16:16:00.015Z,17.50
2023-05-16T16:18:29.101Z,17.44
2023-05-16T16:20:56.340Z,17.45
2023-05-16T16:23:22.958Z,17.51
2023-05-16T16:25:49.580Z,17.56
2023-05-16T16:28:16.600Z,17.58
2023-05-16T16:30:47.459Z,17.64
2023-05-16T16:33:21.398Z,17.71
2023-05-16T16:35:48.486Z,17.79
2023-05-16T16:38:17.520Z,17.72
2023-05-16T16:40:46.629Z,17.71
2023-05-16T16:43:19.513Z,17.72
2023-05-16T16:45:48.088Z,17.70
2023-05-16T16:48:17.220Z,17.68
2023-05-16T16:50:46.260Z,17.73
2023-05-16T16:53:15.653Z,17.78
2023-05-16T16:55:44.819Z,17.74
2023-05-16T16:58:14.268Z,17.65
2023-05-16T17:00:46.737Z,17.62
2023-05-16T17:03:13.549Z,17.49
2023-05-16T17:05:45.589Z,17.51
2023-05-16T17:08:12.218Z,17.47
2023-05-16T17:10:39.440Z,17.45
2023-05-16T17:13:10.455Z,17.40
2023-05-16T17:15:37.869Z,17.30
2023-05-16T17:18:07.681Z,17.22
2023-05-16T17:20:37.428Z,17.10
2023-05-16T17:23:04.220Z,17.07
2023-05-16T17:25:35.915Z,17.07
2023-05-16T17:28:10.896Z,17.04
2023-05-16T17:30:40.499Z,16.96
2023-05-16T17:33:08.244Z,16.96
2023-05-16T17:35:35.890Z,16.98
2023-05-16T17:38:05.415Z,16.98
2023-05-16T17:40:34.519Z,16.93
2023-05-16T17:43:03.232Z,16.92
2023-05-16T17:45:31.905Z,16.92
2023-05-16T17:48:01.170Z,16.89
2023-05-16T17:50:29.158Z,16.83
2023-05-16T17:52:58.906Z,16.79
2023-05-16T17:55:26.176Z,16.71
2023-05-16T17:57:53.575Z,16.78
2023-05-16T18:00:22.866Z,16.77
2023-05-16T18:02:52.729Z,16.74
2023-05-16T18:05:19.416Z,16.73
2023-05-16T18:07:46.598Z,16.67
2023-05-16T18:10:16.551Z,16.69
2023-05-16T18:12:43.807Z,16.69
2023-05-16T18:15:21.017Z,16.76
2023-05-16T18:17:49.710Z,16.71
2023-05-16T18:20:19.575Z,16.70
2023-05-16T18:22:46.445Z,16.74
2023-05-16T18:25:14.039Z,16.79
2023-05-16T18:27:42.987Z,16.86
2023-05-16T18:30:10.118Z,16.84
2023-05-16T18:32:39.307Z,16.85
2023-05-16T18:35:10.399Z,16.89
2023-05-16T18:37:44.222Z,16.92
2023-05-16T18:40:11.548Z,16.96
2023-05-16T18:42:40.722Z,16.88
2023-05-16T18:45:15.060Z,16.90
2023-05-16T18:47:49.311Z,16.88
2023-05-16T18:50:16.342Z,16.85
2023-05-16T18:52:43.143Z,16.82
2023-05-16T18:55:09.995Z,16.85
2023-05-16T18:57:36.666Z,16.82
2023-05-16T19:00:10.523Z,16.83
2023-05-16T19:02:42.135Z,16.87
2023-05-16T19:05:10.674Z,16.65
2023-05-16T19:07:39.720Z,16.87
2023-05-16T19:10:06.688Z,16.90
2023-05-16T19:12:33.309Z,16.85
2023-05-16T19:15:02.223Z,16.77
2023-05-16T19:17:30.564Z,16.79
2023-05-16T19:19:58.442Z,16.82
2023-05-16T19:22:29.992Z,16.83
2023-05-16T19:24:58.938Z,16.89
2023-05-16T19:27:35.837Z,16.87
2023-05-16T19:30:04.041Z,16.86
2023-05-16T19:32:30.668Z,16.84
2023-05-16T19:34:57.684Z,16.79
2023-05-16T19:37:24.490Z,16.67
2023-05-16T19:39:54.396Z,16.71
2023-05-16T19:42:21.343Z,16.70
2023-05-16T19:44:48.221Z,16.71
2023-05-16T19:47:14.856Z,16.75
2023-05-16T19:49:47.616Z,16.64
2023-05-16T19:52:19.349Z,16.56
2023-05-16T19:54:51.321Z,16.53
2023-05-16T19:57:18.062Z,16.59
2023-05-16T19:59:49.860Z,16.65
2023-05-16T20:02:21.207Z,16.59
2023-05-16T20:04:51.197Z,16.47
2023-05-16T20:07:20.664Z,16.40
2023-05-16T20:09:47.382Z,16.37
2023-05-16T20:12:16.616Z,16.41
2023-05-16T20:15:02.640Z,16.36
2023-05-16T20:17:31.640Z,16.30
2023-05-16T20:20:03.199Z,16.26
2023-05-16T20:22:30.105Z,16.21
2023-05-16T20:24:56.897Z,16.17
2023-05-16T20:27:29.750Z,16.19
2023-05-16T20:29:58.620Z,16.19
2023-05-16T20:32:31.119Z,16.31
2023-05-16T20:34:57.912Z,16.38
2023-05-16T20:37:29.377Z,16.40
2023-05-16T20:39:56.158Z,16.43
2023-05-16T20:42:22.853Z,16.42
2023-05-16T20:44:52.385Z,16.43
2023-05-16T20:47:25.064Z,16.44
2023-05-16T20:49:52.820Z,16.43
2023-05-16T20:52:21.909Z,16.45
2023-05-16T20:54:48.871Z,16.46
2023-05-16T20:57:19.563Z,16.41
2023-05-16T20:59:50.517Z,16.35
2023-05-16T21:02:17.248Z,16.41
2023-05-16T21:04:48.886Z,16.34
2023-05-16T21:07:15.750Z,16.41
2023-05-16T21:09:44.850Z,16.47
2023-05-16T21:12:11.623Z,16.46
2023-05-16T21:14:38.370Z,16.49
2023-05-16T21:17:08.276Z,16.38
2023-05-16T21:19:39.643Z,16.30
2023-05-16T21:22:06.328Z,16.28
2023-05-16T21:24:35.790Z,16.29
2023-05-16T21:27:07.101Z,16.38
2023-05-16T21:29:36.543Z,16.47
2023-05-16T21:32:03.960Z,16.42
2023-05-16T21:34:38.026Z,16.40
2023-05-16T21:37:05.915Z,16.43
2023-05-16T21:39:35.524Z,16.45
2023-05-16T21:42:05.287Z,16.50
2023-05-16T21:44:31.872Z,16.54
2023-05-16T21:46:58.556Z,16.58
2023-05-16T21:49:27.950Z,16.56
2023-05-16T21:51:59.484Z,16.61
2023-05-16T21:54:28.074Z,16.61
2023-05-16T21:56:57.330Z,16.59
2023-05-16T21:59:26.484Z,16.62
2023-05-16T22:01:53.034Z,16.57
2023-05-16T22:04:22.256Z,16.52
2023-05-16T22:06:48.946Z,16.48
2023-05-16T22:09:18.442Z,16.46
2023-05-16T22:11:45.387Z,16.40
2023-05-16T22:14:14.782Z,16.41
2023-05-16T22:16:44.037Z,16.47
2023-05-16T22:19:13.338Z,16.47
2023-05-16T22:21:42.935Z,16.42
2023-05-16T22:24:09.557Z,16.36
2023-05-16T22:26:36.391Z,16.28
2023-05-16T22:29:05.302Z,16.17
2023-05-16T22:31:34.288Z,16.15
2023-05-16T22:34:01.786Z,16.13
2023-05-16T22:36:28.705Z,16.18
2023-05-16T22:38:55.850Z,16.26
2023-05-16T22:41:24.923Z,16.27
2023-05-16T22:43:54.679Z,16.25
2023-05-16T22:46:26.174Z,16.26
2023-05-16T22:48:57.832Z,16.22
2023-05-16T22:51:26.607Z,16.22
2023-05-16T22:53:53.210Z,16.26
2023-05-16T22:56:19.903Z,16.30
2023-05-16T22:58:48.903Z,16.39
2023-05-16T23:01:20.486Z,16.47
2023-05-16T23:03:49.859Z,16.51
2023-05-16T23:06:19.552Z,16.48
2023-05-16T23:08:53.971Z,16.50
2023-05-16T23:11:24.031Z,16.46
2023-05-16T23:13:50.770Z,16.41
2023-05-16T23:16:25.738Z,16.37
2023-05-16T23:19:42.077Z,16.35
2023-05-16T23:22:12.151Z,16.34
2023-05-16T23:24:42.310Z,16.32
2023-05-16T23:27:09.302Z,16.31
2023-05-16T23:34:22.849Z,16.36
2023-05-16T23:36:50.007Z,16.33
2023-05-16T23:39:17.468Z,16.26
2023-05-16T23:41:44.504Z,16.22
2023-05-16T23:44:17.391Z,16.24
2023-05-16T23:46:44.509Z,16.33
2023-05-16T23:49:11.540Z,16.31
2023-05-16T23:51:55.573Z,16.27
2023-05-16T23:54:26.820Z,16.25
2023-05-16T23:56:54.181Z,16.32
2023-05-16T23:59:21.525Z,16.30
